sensor_id;sensor_type;location;lat;lon;timestamp;pressure;altitude;pressure_sealevel;temperature
70389;BMP280;58659;49.050;8.530;2022-10-16T00:01:53;99064.75;;;15.56
70389;BMP280;58659;49.050;8.530;2022-10-16T00:04:18;99091.03;;;15.60
70389;BMP280;58659;49.050;8.530;2022-10-16T00:06:43;99122.09;;;15.68
70389;BMP280;58659;49.050;8.530;2022-10-16T00:09:09;99122.38;;;15.74
70389;BMP280;58659;49.050;8.530;2022-10-16T00:11:35;99133.31;;;15.72
70389;BMP280;58659;49.050;8.530;2022-10-16T00:14:05;99132.53;;;15.75
70389;BMP280;58659;49.050;8.530;2022-10-16T00:16:30;99135.94;;;15.72
70389;BMP280;58659;49.050;8.530;2022-10-16T00:18:56;99150.59;;;15.73
70389;BMP280;58659;49.050;8.530;2022-10-16T00:21:22;99153.97;;;15.74
70389;BMP280;58659;49.050;8.530;2022-10-16T00:23:51;99155.03;;;15.76
70389;BMP280;58659;49.050;8.530;2022-10-16T00:26:17;99161.50;;;15.75
70389;BMP280;58659;49.050;8.530;2022-10-16T00:28:44;99158.88;;;15.75
70389;BMP280;58659;49.050;8.530;2022-10-16T00:31:10;99154.72;;;15.74
70389;BMP280;58659;49.050;8.530;2022-10-16T00:33:36;99148.75;;;15.70
70389;BMP280;58659;49.050;8.530;2022-10-16T00:36:03;99137.06;;;15.71
70389;BMP280;58659;49.050;8.530;2022-10-16T00:38:28;99146.25;;;15.63
70389;BMP280;58659;49.050;8.530;2022-10-16T00:40:54;99135.72;;;15.63
70389;BMP280;58659;49.050;8.530;2022-10-16T00:46:05;99154.94;;;15.60
70389;BMP280;58659;49.050;8.530;2022-10-16T00:48:30;99146.75;;;15.55
70389;BMP280;58659;49.050;8.530;2022-10-16T00:50:56;99138.41;;;15.60
70389;BMP280;58659;49.050;8.530;2022-10-16T00:53:23;99132.44;;;15.56
70389;BMP280;58659;49.050;8.530;2022-10-16T00:55:49;99132.53;;;15.52
70389;BMP280;58659;49.050;8.530;2022-10-16T00:58:14;99115.44;;;15.60
70389;BMP280;58659;49.050;8.530;2022-10-16T01:00:39;99120.69;;;15.60
70389;BMP280;58659;49.050;8.530;2022-10-16T01:03:21;99119.56;;;15.61
70389;BMP280;58659;49.050;8.530;2022-10-16T01:05:49;99129.72;;;15.63
70389;BMP280;58659;49.050;8.530;2022-10-16T01:08:19;99139.81;;;15.64
70389;BMP280;58659;49.050;8.530;2022-10-16T01:10:52;99141.31;;;15.65
70389;BMP280;58659;49.050;8.530;2022-10-16T01:13:30;99150.38;;;15.64
70389;BMP280;58659;49.050;8.530;2022-10-16T01:20:54;99144.38;;;15.64
70389;BMP280;58659;49.050;8.530;2022-10-16T01:25:54;99137.50;;;15.70
70389;BMP280;58659;49.050;8.530;2022-10-16T01:28:22;99145.84;;;15.65
70389;BMP280;58659;49.050;8.530;2022-10-16T01:30:49;99142.03;;;15.66
70389;BMP280;58659;49.050;8.530;2022-10-16T01:33:21;99139.69;;;15.71
70389;BMP280;58659;49.050;8.530;2022-10-16T01:35:49;99132.25;;;15.66
70389;BMP280;58659;49.050;8.530;2022-10-16T01:38:17;99131.31;;;15.57
70389;BMP280;58659;49.050;8.530;2022-10-16T01:40:49;99128.25;;;15.58
70389;BMP280;58659;49.050;8.530;2022-10-16T01:43:20;99130.94;;;15.55
70389;BMP280;58659;49.050;8.530;2022-10-16T01:45:45;99126.44;;;15.55
70389;BMP280;58659;49.050;8.530;2022-10-16T01:48:15;99123.00;;;15.58
70389;BMP280;58659;49.050;8.530;2022-10-16T01:50:41;99138.06;;;15.58
70389;BMP280;58659;49.050;8.530;2022-10-16T01:53:08;99142.13;;;15.62
70389;BMP280;58659;49.050;8.530;2022-10-16T01:55:36;99146.19;;;15.67
70389;BMP280;58659;49.050;8.530;2022-10-16T01:58:03;99171.75;;;15.66
70389;BMP280;58659;49.050;8.530;2022-10-16T02:00:30;99170.34;;;15.62
70389;BMP280;58659;49.050;8.530;2022-10-16T02:02:55;99164.78;;;15.56
70389;BMP280;58659;49.050;8.530;2022-10-16T02:07:47;99168.44;;;15.62
70389;BMP280;58659;49.050;8.530;2022-10-16T02:10:13;99180.47;;;15.63
70389;BMP280;58659;49.050;8.530;2022-10-16T02:12:39;99197.75;;;15.64
70389;BMP280;58659;49.050;8.530;2022-10-16T02:15:05;99216.53;;;15.66
70389;BMP280;58659;49.050;8.530;2022-10-16T02:17:30;99253.28;;;15.73
70389;BMP280;58659;49.050;8.530;2022-10-16T02:19:56;99267.59;;;15.72
70389;BMP280;58659;49.050;8.530;2022-10-16T02:22:42;99271.06;;;15.69
70389;BMP280;58659;49.050;8.530;2022-10-16T02:25:13;99278.13;;;15.72
70389;BMP280;58659;49.050;8.530;2022-10-16T02:30:24;99294.69;;;15.73
70389;BMP280;58659;49.050;8.530;2022-10-16T02:32:49;99293.59;;;15.70
70389;BMP280;58659;49.050;8.530;2022-10-16T02:35:17;99279.78;;;15.63
70389;BMP280;58659;49.050;8.530;2022-10-16T02:37:43;99268.66;;;15.52
70389;BMP280;58659;49.050;8.530;2022-10-16T02:40:09;99258.50;;;15.50
70389;BMP280;58659;49.050;8.530;2022-10-16T02:42:36;99245.78;;;15.45
70389;BMP280;58659;49.050;8.530;2022-10-16T02:45:01;99243.13;;;15.49
70389;BMP280;58659;49.050;8.530;2022-10-16T02:47:27;99248.38;;;15.49
70389;BMP280;58659;49.050;8.530;2022-10-16T02:49:52;99251.75;;;15.49
70389;BMP280;58659;49.050;8.530;2022-10-16T02:52:17;99244.22;;;15.51
70389;BMP280;58659;49.050;8.530;2022-10-16T02:54:42;99263.31;;;15.55
70389;BMP280;58659;49.050;8.530;2022-10-16T02:57:07;99270.47;;;15.55
70389;BMP280;58659;49.050;8.530;2022-10-16T02:59:33;99276.91;;;15.54
70389;BMP280;58659;49.050;8.530;2022-10-16T03:01:58;99275.06;;;15.51
70389;BMP280;58659;49.050;8.530;2022-10-16T03:04:23;99278.13;;;15.46
70389;BMP280;58659;49.050;8.530;2022-10-16T03:06:48;99265.00;;;15.42
70389;BMP280;58659;49.050;8.530;2022-10-16T03:09:13;99263.16;;;15.39
70389;BMP280;58659;49.050;8.530;2022-10-16T03:11:39;99250.03;;;15.35
70389;BMP280;58659;49.050;8.530;2022-10-16T03:14:04;99240.97;;;15.40
70389;BMP280;58659;49.050;8.530;2022-10-16T03:16:29;99231.13;;;15.44
70389;BMP280;58659;49.050;8.530;2022-10-16T03:18:54;99234.84;;;15.47
70389;BMP280;58659;49.050;8.530;2022-10-16T03:21:20;99228.81;;;15.50
70389;BMP280;58659;49.050;8.530;2022-10-16T03:23:45;99228.41;;;15.51
70389;BMP280;58659;49.050;8.530;2022-10-16T03:26:10;99238.56;;;15.49
70389;BMP280;58659;49.050;8.530;2022-10-16T03:28:35;99248.44;;;15.45
70389;BMP280;58659;49.050;8.530;2022-10-16T03:31:00;99247.38;;;15.39
70389;BMP280;58659;49.050;8.530;2022-10-16T03:33:26;99241.91;;;15.26
70389;BMP280;58659;49.050;8.530;2022-10-16T03:35:54;99233.72;;;15.21
70389;BMP280;58659;49.050;8.530;2022-10-16T03:38:20;99231.41;;;15.23
70389;BMP280;58659;49.050;8.530;2022-10-16T03:40:45;99220.88;;;15.23
70389;BMP280;58659;49.050;8.530;2022-10-16T03:43:11;99219.00;;;15.23
70389;BMP280;58659;49.050;8.530;2022-10-16T03:45:36;99219.06;;;15.20
70389;BMP280;58659;49.050;8.530;2022-10-16T03:48:01;99208.97;;;15.15
70389;BMP280;58659;49.050;8.530;2022-10-16T03:50:28;99199.13;;;15.19
70389;BMP280;58659;49.050;8.530;2022-10-16T03:52:53;99193.09;;;15.22
70389;BMP280;58659;49.050;8.530;2022-10-16T03:55:18;99186.25;;;15.28
70389;BMP280;58659;49.050;8.530;2022-10-16T03:57:43;99187.34;;;15.30
70389;BMP280;58659;49.050;8.530;2022-10-16T04:00:09;99177.94;;;15.29
70389;BMP280;58659;49.050;8.530;2022-10-16T04:02:34;99175.44;;;15.22
70389;BMP280;58659;49.050;8.530;2022-10-16T04:04:59;99182.53;;;15.25
70389;BMP280;58659;49.050;8.530;2022-10-16T04:07:25;99203.94;;;15.24
70389;BMP280;58659;49.050;8.530;2022-10-16T04:09:50;99205.09;;;15.23
70389;BMP280;58659;49.050;8.530;2022-10-16T04:12:17;99210.34;;;15.23
70389;BMP280;58659;49.050;8.530;2022-10-16T04:14:42;99211.81;;;15.27
70389;BMP280;58659;49.050;8.530;2022-10-16T04:17:07;99212.56;;;15.28
70389;BMP280;58659;49.050;8.530;2022-10-16T04:19:32;99230.56;;;15.29
70389;BMP280;58659;49.050;8.530;2022-10-16T04:21:57;99238.53;;;15.26
70389;BMP280;58659;49.050;8.530;2022-10-16T04:24:23;99234.13;;;15.16
70389;BMP280;58659;49.050;8.530;2022-10-16T04:26:48;99233.72;;;15.17
70389;BMP280;58659;49.050;8.530;2022-10-16T04:29:13;99229.63;;;15.16
70389;BMP280;58659;49.050;8.530;2022-10-16T04:31:38;99225.06;;;15.20
70389;BMP280;58659;49.050;8.530;2022-10-16T04:34:03;99220.94;;;15.19
70389;BMP280;58659;49.050;8.530;2022-10-16T04:36:28;99229.22;;;15.18
70389;BMP280;58659;49.050;8.530;2022-10-16T04:38:54;99217.13;;;15.24
70389;BMP280;58659;49.050;8.530;2022-10-16T04:41:19;99217.13;;;15.24
70389;BMP280;58659;49.050;8.530;2022-10-16T04:43:44;99222.38;;;15.24
70389;BMP280;58659;49.050;8.530;2022-10-16T04:46:09;99215.53;;;15.30
70389;BMP280;58659;49.050;8.530;2022-10-16T04:48:35;99209.78;;;15.39
70389;BMP280;58659;49.050;8.530;2022-10-16T04:51:00;99213.91;;;15.40
70389;BMP280;58659;49.050;8.530;2022-10-16T04:53:25;99224.44;;;15.40
70389;BMP280;58659;49.050;8.530;2022-10-16T04:55:50;99234.22;;;15.39
70389;BMP280;58659;49.050;8.530;2022-10-16T04:58:16;99243.25;;;15.38
70389;BMP280;58659;49.050;8.530;2022-10-16T05:00:41;99251.56;;;15.37
70389;BMP280;58659;49.050;8.530;2022-10-16T05:03:06;99259.81;;;15.35
70389;BMP280;58659;49.050;8.530;2022-10-16T05:05:33;99280.19;;;15.31
70389;BMP280;58659;49.050;8.530;2022-10-16T05:07:59;99293.69;;;15.33
70389;BMP280;58659;49.050;8.530;2022-10-16T05:10:24;99298.22;;;15.32
70389;BMP280;58659;49.050;8.530;2022-10-16T05:12:49;99296.03;;;15.27
70389;BMP280;58659;49.050;8.530;2022-10-16T05:15:16;99299.09;;;15.22
70389;BMP280;58659;49.050;8.530;2022-10-16T05:17:41;99293.56;;;15.13
70389;BMP280;58659;49.050;8.530;2022-10-16T05:20:06;99291.78;;;15.03
70389;BMP280;58659;49.050;8.530;2022-10-16T05:22:32;99289.91;;;15.04
70389;BMP280;58659;49.050;8.530;2022-10-16T05:24:57;99285.78;;;15.03
70389;BMP280;58659;49.050;8.530;2022-10-16T05:27:22;99294.81;;;15.02
70389;BMP280;58659;49.050;8.530;2022-10-16T05:29:48;99300.94;;;14.92
70389;BMP280;58659;49.050;8.530;2022-10-16T05:32:14;99286.72;;;14.82
70389;BMP280;58659;49.050;8.530;2022-10-16T05:34:39;99289.78;;;14.77
70389;BMP280;58659;49.050;8.530;2022-10-16T05:37:04;99277.81;;;14.72
70389;BMP280;58659;49.050;8.530;2022-10-16T05:39:30;99267.34;;;14.69
70389;BMP280;58659;49.050;8.530;2022-10-16T05:41:55;99261.34;;;14.68
70389;BMP280;58659;49.050;8.530;2022-10-16T05:44:20;99258.34;;;14.66
70389;BMP280;58659;49.050;8.530;2022-10-16T05:46:46;99259.84;;;14.67
70389;BMP280;58659;49.050;8.530;2022-10-16T05:49:11;99247.47;;;14.68
70389;BMP280;58659;49.050;8.530;2022-10-16T05:51:36;99245.53;;;14.72
70389;BMP280;58659;49.050;8.530;2022-10-16T05:54:01;99239.88;;;14.73
70389;BMP280;58659;49.050;8.530;2022-10-16T05:56:26;99237.19;;;14.77
70389;BMP280;58659;49.050;8.530;2022-10-16T05:58:52;99232.63;;;14.85
70389;BMP280;58659;49.050;8.530;2022-10-16T06:01:17;99229.94;;;14.88
70389;BMP280;58659;49.050;8.530;2022-10-16T06:03:43;99243.84;;;14.89
70389;BMP280;58659;49.050;8.530;2022-10-16T06:06:13;99245.78;;;14.85
70389;BMP280;58659;49.050;8.530;2022-10-16T06:08:38;99235.38;;;14.74
70389;BMP280;58659;49.050;8.530;2022-10-16T06:11:05;99229.38;;;14.73
70389;BMP280;58659;49.050;8.530;2022-10-16T06:13:31;99215.47;;;14.73
70389;BMP280;58659;49.050;8.530;2022-10-16T06:15:57;99209.84;;;14.74
70389;BMP280;58659;49.050;8.530;2022-10-16T06:18:22;99219.91;;;14.80
70389;BMP280;58659;49.050;8.530;2022-10-16T06:20:48;99218.72;;;14.84
70389;BMP280;58659;49.050;8.530;2022-10-16T06:23:13;99213.78;;;14.90
70389;BMP280;58659;49.050;8.530;2022-10-16T06:25:38;99199.13;;;14.89
70389;BMP280;58659;49.050;8.530;2022-10-16T06:28:03;99229.69;;;14.79
70389;BMP280;58659;49.050;8.530;2022-10-16T06:30:29;99239.69;;;14.88
70389;BMP280;58659;49.050;8.530;2022-10-16T06:32:54;99251.66;;;14.96
70389;BMP280;58659;49.050;8.530;2022-10-16T06:35:19;99273.75;;;15.02
70389;BMP280;58659;49.050;8.530;2022-10-16T06:37:44;99270.25;;;15.12
70389;BMP280;58659;49.050;8.530;2022-10-16T06:40:10;99268.25;;;15.23
70389;BMP280;58659;49.050;8.530;2022-10-16T06:42:35;99281.00;;;15.24
70389;BMP280;58659;49.050;8.530;2022-10-16T06:45:00;99299.00;;;15.29
70389;BMP280;58659;49.050;8.530;2022-10-16T06:47:26;99315.91;;;15.32
70389;BMP280;58659;49.050;8.530;2022-10-16T06:49:52;99316.59;;;15.36
70389;BMP280;58659;49.050;8.530;2022-10-16T06:52:17;99323.69;;;15.39
70389;BMP280;58659;49.050;8.530;2022-10-16T06:54:43;99348.53;;;15.38
70389;BMP280;58659;49.050;8.530;2022-10-16T06:57:08;99359.72;;;15.46
70389;BMP280;58659;49.050;8.530;2022-10-16T06:59:33;99367.56;;;15.49
70389;BMP280;58659;49.050;8.530;2022-10-16T07:01:58;99394.25;;;15.51
70389;BMP280;58659;49.050;8.530;2022-10-16T07:04:24;99423.47;;;15.60
70389;BMP280;58659;49.050;8.530;2022-10-16T07:06:49;99453.06;;;15.71
70389;BMP280;58659;49.050;8.530;2022-10-16T07:09:14;99486.13;;;15.79
70389;BMP280;58659;49.050;8.530;2022-10-16T07:11:40;99513.88;;;15.87
70389;BMP280;58659;49.050;8.530;2022-10-16T07:14:09;99553.28;;;15.94
70389;BMP280;58659;49.050;8.530;2022-10-16T07:16:37;99588.63;;;16.01
70389;BMP280;58659;49.050;8.530;2022-10-16T07:19:02;99593.78;;;16.11
70389;BMP280;58659;49.050;8.530;2022-10-16T07:21:29;99616.66;;;16.18
70389;BMP280;58659;49.050;8.530;2022-10-16T07:23:55;99607.81;;;16.35
70389;BMP280;58659;49.050;8.530;2022-10-16T07:26:20;99648.84;;;16.36
70389;BMP280;58659;49.050;8.530;2022-10-16T07:28:46;99643.94;;;16.38
70389;BMP280;58659;49.050;8.530;2022-10-16T07:31:12;99651.81;;;16.41
70389;BMP280;58659;49.050;8.530;2022-10-16T07:33:38;99668.34;;;16.45
70389;BMP280;58659;49.050;8.530;2022-10-16T07:36:04;99673.16;;;16.54
70389;BMP280;58659;49.050;8.530;2022-10-16T07:38:29;99674.22;;;16.60
70389;BMP280;58659;49.050;8.530;2022-10-16T07:40:56;99674.50;;;16.69
70389;BMP280;58659;49.050;8.530;2022-10-16T07:43:21;99672.91;;;16.72
70389;BMP280;58659;49.050;8.530;2022-10-16T07:45:47;99682.84;;;16.64
70389;BMP280;58659;49.050;8.530;2022-10-16T07:48:13;99657.53;;;16.70
70389;BMP280;58659;49.050;8.530;2022-10-16T07:50:38;99651.81;;;16.75
70389;BMP280;58659;49.050;8.530;2022-10-16T07:53:03;99654.75;;;16.77
70389;BMP280;58659;49.050;8.530;2022-10-16T07:55:29;99653.91;;;16.87
70389;BMP280;58659;49.050;8.530;2022-10-16T07:57:54;99659.09;;;16.94
70389;BMP280;58659;49.050;8.530;2022-10-16T08:00:19;99686.97;;;16.95
70389;BMP280;58659;49.050;8.530;2022-10-16T08:02:44;99713.13;;;16.83
70389;BMP280;58659;49.050;8.530;2022-10-16T08:05:10;99691.25;;;16.86
70389;BMP280;58659;49.050;8.530;2022-10-16T08:07:35;99678.13;;;16.79
70389;BMP280;58659;49.050;8.530;2022-10-16T08:10:00;99680.25;;;16.91
70389;BMP280;58659;49.050;8.530;2022-10-16T08:12:25;99667.94;;;17.07
70389;BMP280;58659;49.050;8.530;2022-10-16T08:14:51;99660.88;;;17.28
70389;BMP280;58659;49.050;8.530;2022-10-16T08:17:16;99662.22;;;17.39
70389;BMP280;58659;49.050;8.530;2022-10-16T08:19:45;99689.38;;;17.36
70389;BMP280;58659;49.050;8.530;2022-10-16T08:22:10;99664.78;;;17.43
70389;BMP280;58659;49.050;8.530;2022-10-16T08:24:35;99672.91;;;17.55
70389;BMP280;58659;49.050;8.530;2022-10-16T08:27:02;99703.34;;;17.37
70389;BMP280;58659;49.050;8.530;2022-10-16T08:29:27;99699.28;;;17.32
70389;BMP280;58659;49.050;8.530;2022-10-16T08:31:52;99692.00;;;17.40
70389;BMP280;58659;49.050;8.530;2022-10-16T08:34:17;99683.19;;;17.50
70389;BMP280;58659;49.050;8.530;2022-10-16T08:36:43;99714.66;;;17.64
70389;BMP280;58659;49.050;8.530;2022-10-16T08:39:08;99744.78;;;17.66
70389;BMP280;58659;49.050;8.530;2022-10-16T08:41:48;99754.59;;;17.93
70389;BMP280;58659;49.050;8.530;2022-10-16T08:49:15;99855.22;;;18.52
70389;BMP280;58659;49.050;8.530;2022-10-16T08:51:41;99859.94;;;18.64
70389;BMP280;58659;49.050;8.530;2022-10-16T08:54:21;99891.09;;;18.76
70389;BMP280;58659;49.050;8.530;2022-10-16T08:56:55;99921.44;;;18.91
70389;BMP280;58659;49.050;8.530;2022-10-16T08:59:21;99929.34;;;18.94
70389;BMP280;58659;49.050;8.530;2022-10-16T09:01:47;99946.94;;;19.05
70389;BMP280;58659;49.050;8.530;2022-10-16T09:09:40;99966.91;;;19.09
70389;BMP280;58659;49.050;8.530;2022-10-16T09:20:12;99959.31;;;18.88
70389;BMP280;58659;49.050;8.530;2022-10-16T09:22:38;99991.91;;;19.08
70389;BMP280;58659;49.050;8.530;2022-10-16T09:25:11;99987.72;;;19.30
70389;BMP280;58659;49.050;8.530;2022-10-16T09:27:37;100010.78;;;19.30
70389;BMP280;58659;49.050;8.530;2022-10-16T09:30:10;100018.94;;;19.19
70389;BMP280;58659;49.050;8.530;2022-10-16T09:32:35;100017.75;;;19.01
70389;BMP280;58659;49.050;8.530;2022-10-16T09:35:03;100028.78;;;18.72
70389;BMP280;58659;49.050;8.530;2022-10-16T09:37:28;100008.22;;;18.57
70389;BMP280;58659;49.050;8.530;2022-10-16T09:39:53;100006.88;;;18.45
70389;BMP280;58659;49.050;8.530;2022-10-16T09:42:30;99998.69;;;18.63
70389;BMP280;58659;49.050;8.530;2022-10-16T09:44:56;100005.28;;;18.78
70389;BMP280;58659;49.050;8.530;2022-10-16T09:47:25;100002.34;;;18.95
70389;BMP280;58659;49.050;8.530;2022-10-16T09:52:21;100020.72;;;19.03
70389;BMP280;58659;49.050;8.530;2022-10-16T09:54:51;100029.38;;;19.26
70389;BMP280;58659;49.050;8.530;2022-10-16T09:57:16;100048.94;;;19.32
70389;BMP280;58659;49.050;8.530;2022-10-16T09:59:51;100049.84;;;19.26
70389;BMP280;58659;49.050;8.530;2022-10-16T10:02:17;100061.56;;;19.48
70389;BMP280;58659;49.050;8.530;2022-10-16T10:04:53;100066.31;;;19.76
70389;BMP280;58659;49.050;8.530;2022-10-16T10:07:53;100074.72;;;20.10
70389;BMP280;58659;49.050;8.530;2022-10-16T10:13:16;100097.19;;;20.58
70389;BMP280;58659;49.050;8.530;2022-10-16T10:15:42;100110.72;;;20.63
70389;BMP280;58659;49.050;8.530;2022-10-16T10:18:16;100109.53;;;20.64
70389;BMP280;58659;49.050;8.530;2022-10-16T10:20:43;100100.09;;;20.47
70389;BMP280;58659;49.050;8.530;2022-10-16T10:23:25;100108.66;;;20.19
70389;BMP280;58659;49.050;8.530;2022-10-16T10:31:20;100069.41;;;19.09
70389;BMP280;58659;49.050;8.530;2022-10-16T10:33:59;100075.13;;;19.50
70389;BMP280;58659;49.050;8.530;2022-10-16T10:36:31;100084.97;;;19.73
70389;BMP280;58659;49.050;8.530;2022-10-16T10:38:58;100090.59;;;20.14
70389;BMP280;58659;49.050;8.530;2022-10-16T10:49:02;100095.19;;;20.10
70389;BMP280;58659;49.050;8.530;2022-10-16T10:57:21;100093.41;;;20.23
70389;BMP280;58659;49.050;8.530;2022-10-16T11:07:26;100100.06;;;20.31
70389;BMP280;58659;49.050;8.530;2022-10-16T11:09:57;100090.72;;;20.27
70389;BMP280;58659;49.050;8.530;2022-10-16T11:12:27;100098.22;;;20.28
70389;BMP280;58659;49.050;8.530;2022-10-16T11:14:56;100106.66;;;20.43
70389;BMP280;58659;49.050;8.530;2022-10-16T11:17:25;100099.75;;;20.45
70389;BMP280;58659;49.050;8.530;2022-10-16T11:19:53;100106.97;;;20.77
70389;BMP280;58659;49.050;8.530;2022-10-16T11:24:48;100108.97;;;21.34
70389;BMP280;58659;49.050;8.530;2022-10-16T11:27:16;100115.69;;;21.54
70389;BMP280;58659;49.050;8.530;2022-10-16T11:29:45;100108.53;;;21.80
70389;BMP280;58659;49.050;8.530;2022-10-16T11:32:23;100115.31;;;22.22
70389;BMP280;58659;49.050;8.530;2022-10-16T11:34:52;100116.13;;;22.57
70389;BMP280;58659;49.050;8.530;2022-10-16T11:37:19;100114.72;;;22.53
70389;BMP280;58659;49.050;8.530;2022-10-16T11:39:45;100100.59;;;22.30
70389;BMP280;58659;49.050;8.530;2022-10-16T11:42:13;100095.91;;;22.09
70389;BMP280;58659;49.050;8.530;2022-10-16T11:44:44;100101.13;;;22.00
70389;BMP280;58659;49.050;8.530;2022-10-16T11:49:49;100095.66;;;22.54
70389;BMP280;58659;49.050;8.530;2022-10-16T11:52:20;100105.16;;;22.68
70389;BMP280;58659;49.050;8.530;2022-10-16T11:57:33;100105.34;;;23.08
70389;BMP280;58659;49.050;8.530;2022-10-16T12:10:27;100108.31;;;24.72
70389;BMP280;58659;49.050;8.530;2022-10-16T12:12:52;100098.97;;;24.86
70389;BMP280;58659;49.050;8.530;2022-10-16T12:15:24;100108.84;;;24.40
70389;BMP280;58659;49.050;8.530;2022-10-16T12:17:50;100107.97;;;23.94
70389;BMP280;58659;49.050;8.530;2022-10-16T12:25:19;100100.09;;;23.17
70389;BMP280;58659;49.050;8.530;2022-10-16T12:27:45;100104.06;;;23.34
70389;BMP280;58659;49.050;8.530;2022-10-16T12:30:20;100094.50;;;23.24
70389;BMP280;58659;49.050;8.530;2022-10-16T12:32:52;100098.31;;;23.14
70389;BMP280;58659;49.050;8.530;2022-10-16T12:35:21;100094.16;;;23.00
70389;BMP280;58659;49.050;8.530;2022-10-16T12:37:47;100095.59;;;22.92
70389;BMP280;58659;49.050;8.530;2022-10-16T12:42:38;100091.97;;;22.52
70389;BMP280;58659;49.050;8.530;2022-10-16T12:47:49;100082.59;;;22.35
70389;BMP280;58659;49.050;8.530;2022-10-16T12:52:49;100091.81;;;22.05
70389;BMP280;58659;49.050;8.530;2022-10-16T12:55:18;100073.00;;;21.99
70389;BMP280;58659;49.050;8.530;2022-10-16T13:08:18;100057.09;;;21.45
70389;BMP280;58659;49.050;8.530;2022-10-16T13:15:50;100063.28;;;21.10
70389;BMP280;58659;49.050;8.530;2022-10-16T13:18:38;100047.31;;;20.81
70389;BMP280;58659;49.050;8.530;2022-10-16T13:23:48;100041.53;;;20.38
70389;BMP280;58659;49.050;8.530;2022-10-16T13:26:21;100023.75;;;20.19
70389;BMP280;58659;49.050;8.530;2022-10-16T13:28:48;100014.94;;;20.06
70389;BMP280;58659;49.050;8.530;2022-10-16T13:31:18;100008.28;;;19.98
70389;BMP280;58659;49.050;8.530;2022-10-16T13:33:46;100001.56;;;19.93
70389;BMP280;58659;49.050;8.530;2022-10-16T13:36:20;100006.00;;;20.00
70389;BMP280;58659;49.050;8.530;2022-10-16T13:38:45;100004.28;;;20.09
70389;BMP280;58659;49.050;8.530;2022-10-16T13:41:17;100008.09;;;20.08
70389;BMP280;58659;49.050;8.530;2022-10-16T13:43:43;100015.28;;;20.08
70389;BMP280;58659;49.050;8.530;2022-10-16T13:46:19;100004.94;;;20.13
70389;BMP280;58659;49.050;8.530;2022-10-16T13:48:55;100007.34;;;20.08
70389;BMP280;58659;49.050;8.530;2022-10-16T13:51:21;99995.38;;;20.00
70389;BMP280;58659;49.050;8.530;2022-10-16T13:53:46;99985.63;;;19.77
70389;BMP280;58659;49.050;8.530;2022-10-16T13:56:15;99985.00;;;19.53
70389;BMP280;58659;49.050;8.530;2022-10-16T13:58:40;99991.16;;;19.47
70389;BMP280;58659;49.050;8.530;2022-10-16T14:01:15;99962.09;;;19.43
70389;BMP280;58659;49.050;8.530;2022-10-16T14:03:41;99958.75;;;19.39
70389;BMP280;58659;49.050;8.530;2022-10-16T14:06:10;99958.34;;;19.41
70389;BMP280;58659;49.050;8.530;2022-10-16T14:08:37;99929.06;;;19.48
70389;BMP280;58659;49.050;8.530;2022-10-16T14:11:06;99946.47;;;19.49
70389;BMP280;58659;49.050;8.530;2022-10-16T14:13:37;99936.41;;;19.40
70389;BMP280;58659;49.050;8.530;2022-10-16T14:16:15;99921.09;;;19.32
70389;BMP280;58659;49.050;8.530;2022-10-16T14:18:41;99923.53;;;19.23
70389;BMP280;58659;49.050;8.530;2022-10-16T14:21:13;99919.38;;;19.22
70389;BMP280;58659;49.050;8.530;2022-10-16T14:23:40;99891.09;;;19.15
70389;BMP280;58659;49.050;8.530;2022-10-16T14:26:06;99910.09;;;19.14
70389;BMP280;58659;49.050;8.530;2022-10-16T14:28:38;99883.84;;;19.19
70389;BMP280;58659;49.050;8.530;2022-10-16T14:31:23;99873.19;;;19.23
70389;BMP280;58659;49.050;8.530;2022-10-16T14:33:49;99878.25;;;19.33
70389;BMP280;58659;49.050;8.530;2022-10-16T14:36:15;99921.13;;;20.00
70389;BMP280;58659;49.050;8.530;2022-10-16T14:38:48;100011.25;;;20.36
70389;BMP280;58659;49.050;8.530;2022-10-16T14:41:14;100048.00;;;20.53
70389;BMP280;58659;49.050;8.530;2022-10-16T14:43:40;100042.94;;;20.75
70389;BMP280;58659;49.050;8.530;2022-10-16T14:46:15;100044.66;;;20.98
70389;BMP280;58659;49.050;8.530;2022-10-16T14:48:48;100054.84;;;21.15
70389;BMP280;58659;49.050;8.530;2022-10-16T14:51:15;100056.81;;;21.27
70389;BMP280;58659;49.050;8.530;2022-10-16T14:53:40;100058.97;;;21.57
70389;BMP280;58659;49.050;8.530;2022-10-16T14:56:07;100067.16;;;21.92
70389;BMP280;58659;49.050;8.530;2022-10-16T14:58:32;100070.44;;;22.08
70389;BMP280;58659;49.050;8.530;2022-10-16T15:00:57;100070.03;;;21.97
70389;BMP280;58659;49.050;8.530;2022-10-16T15:03:22;100063.69;;;21.53
70389;BMP280;58659;49.050;8.530;2022-10-16T15:05:48;100060.81;;;21.19
70389;BMP280;58659;49.050;8.530;2022-10-16T15:08:13;100055.47;;;20.90
70389;BMP280;58659;49.050;8.530;2022-10-16T15:10:41;100060.47;;;20.72
70389;BMP280;58659;49.050;8.530;2022-10-16T15:13:08;100055.31;;;20.65
70389;BMP280;58659;49.050;8.530;2022-10-16T15:15:39;100049.25;;;20.49
70389;BMP280;58659;49.050;8.530;2022-10-16T15:18:06;100040.50;;;20.16
70389;BMP280;58659;49.050;8.530;2022-10-16T15:20:35;100025.84;;;19.92
70389;BMP280;58659;49.050;8.530;2022-10-16T15:23:02;100021.59;;;19.78
70389;BMP280;58659;49.050;8.530;2022-10-16T15:25:35;100014.84;;;19.74
70389;BMP280;58659;49.050;8.530;2022-10-16T15:28:01;99983.75;;;19.58
70389;BMP280;58659;49.050;8.530;2022-10-16T15:30:26;100002.56;;;19.63
70389;BMP280;58659;49.050;8.530;2022-10-16T15:32:52;100003.84;;;19.75
70389;BMP280;58659;49.050;8.530;2022-10-16T15:35:17;99998.88;;;19.77
70389;BMP280;58659;49.050;8.530;2022-10-16T15:37:42;99980.81;;;19.72
70389;BMP280;58659;49.050;8.530;2022-10-16T15:40:08;99983.88;;;19.71
70389;BMP280;58659;49.050;8.530;2022-10-16T15:42:34;99983.94;;;19.67
70389;BMP280;58659;49.050;8.530;2022-10-16T15:44:59;99966.69;;;19.59
70389;BMP280;58659;49.050;8.530;2022-10-16T15:47:24;99956.31;;;19.48
70389;BMP280;58659;49.050;8.530;2022-10-16T15:49:50;99934.59;;;19.37
70389;BMP280;58659;49.050;8.530;2022-10-16T15:52:15;99925.75;;;19.24
70389;BMP280;58659;49.050;8.530;2022-10-16T15:54:41;99908.50;;;19.16
70389;BMP280;58659;49.050;8.530;2022-10-16T15:57:06;99892.06;;;19.05
70389;BMP280;58659;49.050;8.530;2022-10-16T15:59:31;99888.41;;;18.99
70389;BMP280;58659;49.050;8.530;2022-10-16T16:01:56;99885.38;;;18.97